createdAt,value
2019-04-06T00:03:07.801Z,37.57
2019-04-06T00:05:35.013Z,42.80
2019-04-06T00:08:02.271Z,41.67
2019-04-06T00:10:29.204Z,43.40
2019-04-06T00:12:56.268Z,44.40
2019-04-06T00:15:23.447Z,44.87
2019-04-06T00:17:50.337Z,41.60
2019-04-06T00:20:17.115Z,44.33
2019-04-06T00:22:44.139Z,40.93
2019-04-06T00:25:11.171Z,41.80
2019-04-06T00:27:38.282Z,41.53
2019-04-06T00:33:05.946Z,38.93
2019-04-06T00:35:33.116Z,42.40
2019-04-06T00:38:00.682Z,41.50
2019-04-06T00:40:28.201Z,42.63
2019-04-06T00:42:55.290Z,44.27
2019-04-06T00:45:22.393Z,42.67
2019-04-06T00:47:49.549Z,38.23
2019-04-06T00:50:16.703Z,40.97
2019-04-06T00:52:43.861Z,42.30
2019-04-06T00:55:11.249Z,37.53
2019-04-06T00:57:38.347Z,36.87
2019-04-06T01:00:05.795Z,38.00
2019-04-06T01:02:33.012Z,41.93
2019-04-06T01:05:00.107Z,39.93
2019-04-06T01:07:27.537Z,37.07
2019-04-06T01:09:54.697Z,39.90
2019-04-06T01:12:21.876Z,41.83
2019-04-06T01:14:49.407Z,38.77
2019-04-06T01:17:16.554Z,40.37
2019-04-06T01:19:43.701Z,40.70
2019-04-06T01:22:10.806Z,37.43
2019-04-06T01:24:37.962Z,37.27
2019-04-06T01:27:05.073Z,40.27
2019-04-06T01:29:32.496Z,34.10
2019-04-06T01:32:00.012Z,34.67
2019-04-06T01:34:27.479Z,35.13
2019-04-06T01:36:54.640Z,36.87
2019-04-06T01:39:21.836Z,36.43
2019-04-06T01:41:48.933Z,34.50
2019-04-06T01:44:16.015Z,31.27
2019-04-06T01:46:43.185Z,30.20
2019-04-06T01:49:10.252Z,35.20
2019-04-06T01:51:37.364Z,31.73
2019-04-06T01:54:04.538Z,33.70
2019-04-06T01:56:31.613Z,32.33
2019-04-06T01:58:58.720Z,32.47
2019-04-06T02:01:45.465Z,30.20
2019-04-06T02:04:12.315Z,37.00
2019-04-06T02:06:39.098Z,38.20
2019-04-06T02:09:06.293Z,39.03
2019-04-06T02:11:33.099Z,31.87
2019-04-06T02:13:59.956Z,35.13
2019-04-06T02:16:27.150Z,31.60
2019-04-06T02:18:54.341Z,32.77
2019-04-06T02:21:21.477Z,31.77
2019-04-06T02:23:48.601Z,35.23
2019-04-06T02:26:15.627Z,34.60
2019-04-06T02:28:42.641Z,34.60
2019-04-06T02:31:15.558Z,33.77
2019-04-06T02:36:54.991Z,33.87
2019-04-06T02:39:41.660Z,34.40
2019-04-06T02:42:29.094Z,31.83
2019-04-06T02:44:56.413Z,35.30
2019-04-06T02:47:23.251Z,34.33
2019-04-06T02:49:50.743Z,34.40
2019-04-06T02:52:17.497Z,35.67
2019-04-06T02:54:44.247Z,34.70
2019-04-06T02:57:11.405Z,33.43
2019-04-06T02:59:38.567Z,30.77
2019-04-06T03:02:05.422Z,32.63
2019-04-06T03:04:32.959Z,34.80
2019-04-06T03:07:19.327Z,31.60
2019-04-06T03:09:46.211Z,30.70
2019-04-06T03:12:13.374Z,32.60
2019-04-06T03:14:40.254Z,30.83
2019-04-06T03:17:07.227Z,35.20
2019-04-06T03:19:33.987Z,34.03
2019-04-06T03:22:00.750Z,35.37
2019-04-06T03:24:27.787Z,32.33
2019-04-06T03:27:02.052Z,34.10
2019-04-06T03:29:23.337Z,31.03
2019-04-06T03:31:50.187Z,32.23
2019-04-06T03:34:21.599Z,31.00
2019-04-06T03:36:45.711Z,29.20
2019-04-06T03:39:12.730Z,30.03
2019-04-06T03:41:53.126Z,32.83
2019-04-06T03:44:20.997Z,32.63
2019-04-06T03:46:48.098Z,30.63
2019-04-06T03:49:15.164Z,31.73
2019-04-06T03:51:42.326Z,31.20
2019-04-06T03:54:09.409Z,30.83
2019-04-06T03:56:36.491Z,30.53
2019-04-06T03:59:03.627Z,31.10
2019-04-06T04:01:31.068Z,31.87
2019-04-06T04:03:58.155Z,30.03
2019-04-06T04:06:25.981Z,31.37
2019-04-06T04:08:53.469Z,32.53
2019-04-06T04:11:20.863Z,32.00
2019-04-06T04:13:48.094Z,31.57
2019-04-06T04:16:15.270Z,31.60
2019-04-06T04:18:42.682Z,30.23
2019-04-06T04:21:09.885Z,31.57
2019-04-06T04:23:37.169Z,29.40
2019-04-06T04:26:04.295Z,30.80
2019-04-06T04:28:31.445Z,28.87
2019-04-06T04:30:58.623Z,29.73
2019-04-06T04:33:25.751Z,31.37
2019-04-06T04:35:53.051Z,31.80
2019-04-06T04:38:20.154Z,31.47
2019-04-06T04:40:47.264Z,29.90
2019-04-06T04:43:14.586Z,30.97
2019-04-06T04:46:01.100Z,32.20
2019-04-06T04:48:28.314Z,31.67
2019-04-06T04:50:55.780Z,31.63
2019-04-06T04:53:23.259Z,30.50
2019-04-06T04:55:50.992Z,31.30
2019-04-06T04:58:18.354Z,30.67
2019-04-06T05:00:45.499Z,29.50
2019-04-06T05:03:12.762Z,29.63
2019-04-06T05:05:39.867Z,29.93
2019-04-06T05:08:07.195Z,28.60
2019-04-06T05:10:34.599Z,30.33
2019-04-06T05:13:01.711Z,29.70
2019-04-06T05:15:53.979Z,30.97
2019-04-06T05:18:21.077Z,29.40
2019-04-06T05:20:50.603Z,28.50
2019-04-06T05:23:17.754Z,27.43
2019-04-06T05:25:44.865Z,28.73
2019-04-06T05:28:12.339Z,29.50
2019-04-06T05:30:39.798Z,30.30
2019-04-06T05:33:07.166Z,30.67
2019-04-06T05:35:34.534Z,29.63
2019-04-06T05:38:02.016Z,28.60
2019-04-06T05:40:30.182Z,29.30
2019-04-06T05:42:57.397Z,31.43
2019-04-06T05:45:38.706Z,31.40
2019-04-06T05:48:06.299Z,31.80
2019-04-06T05:50:33.396Z,31.23
2019-04-06T05:53:01.443Z,31.43
2019-04-06T05:55:28.561Z,29.30
2019-04-06T05:58:03.473Z,29.27
2019-04-06T06:00:25.529Z,28.77
2019-04-06T06:02:54.009Z,29.00
2019-04-06T06:05:23.004Z,28.07
2019-04-06T06:07:51.734Z,28.57
2019-04-06T06:10:18.889Z,26.87
2019-04-06T06:12:46.025Z,26.87
2019-04-06T06:15:56.546Z,26.63
2019-04-06T06:18:27.639Z,27.70
2019-04-06T06:20:54.843Z,27.20
2019-04-06T06:23:22.792Z,28.10
2019-04-06T06:25:51.489Z,26.33
2019-04-06T06:28:18.908Z,26.33
2019-04-06T06:30:46.530Z,25.40
2019-04-06T06:33:14.022Z,28.50
2019-04-06T06:35:41.960Z,26.63
2019-04-06T06:38:09.123Z,25.87
2019-04-06T06:40:36.234Z,27.67
2019-04-06T06:43:24.587Z,26.87
2019-04-06T06:45:51.894Z,26.20
2019-04-06T06:48:19.123Z,26.57
2019-04-06T06:50:46.346Z,27.27
2019-04-06T06:53:13.534Z,26.23
2019-04-06T06:55:41.365Z,27.43
2019-04-06T06:58:08.531Z,27.33
2019-04-06T07:00:57.624Z,27.63
2019-04-06T07:03:24.806Z,25.73
2019-04-06T07:05:51.925Z,26.97
2019-04-06T07:08:19.006Z,28.03
2019-04-06T07:10:46.546Z,27.73
2019-04-06T07:13:13.637Z,26.53
2019-04-06T07:15:43.126Z,27.93
2019-04-06T07:18:09.837Z,26.90
2019-04-06T07:20:56.820Z,26.60
2019-04-06T07:23:23.779Z,27.10
2019-04-06T07:25:57.735Z,26.20
2019-04-06T07:28:19.172Z,26.83
2019-04-06T07:30:45.868Z,27.00
2019-04-06T07:33:12.608Z,28.33
2019-04-06T07:35:39.354Z,26.93
2019-04-06T07:38:06.366Z,26.60
2019-04-06T07:40:33.076Z,26.00
2019-04-06T07:43:19.978Z,26.93
2019-04-06T07:45:47.061Z,26.30
2019-04-06T07:48:26.628Z,27.40
2019-04-06T07:50:53.881Z,26.77
2019-04-06T07:53:20.526Z,25.97
2019-04-06T07:55:47.366Z,26.87
2019-04-06T07:58:14.175Z,26.50
2019-04-06T08:00:40.913Z,26.83
2019-04-06T08:03:07.868Z,25.27
2019-04-06T08:05:34.903Z,26.83
2019-04-06T08:08:01.531Z,26.03
2019-04-06T08:10:28.468Z,26.27
2019-04-06T08:12:55.314Z,26.07
2019-04-06T08:15:22.321Z,26.23
2019-04-06T08:17:49.121Z,26.10
2019-04-06T08:20:16.058Z,25.77
2019-04-06T08:22:43.506Z,24.73
2019-04-06T08:25:12.583Z,25.27
2019-04-06T08:27:39.323Z,26.33
2019-04-06T08:30:07.354Z,26.33
2019-04-06T08:32:34.711Z,25.47
2019-04-06T08:35:01.879Z,24.07
2019-04-06T08:37:28.840Z,25.27
2019-04-06T08:39:55.675Z,27.23
2019-04-06T08:42:41.963Z,23.67
2019-04-06T08:45:08.906Z,25.03
2019-04-06T08:47:36.209Z,24.70
2019-04-06T08:50:44.759Z,23.77
2019-04-06T08:53:11.968Z,23.57
2019-04-06T08:55:38.892Z,23.40
2019-04-06T08:58:06.276Z,24.00
2019-04-06T09:00:33.548Z,23.40
2019-04-06T09:03:00.380Z,24.60
2019-04-06T09:05:27.621Z,23.43
2019-04-06T09:07:54.639Z,23.90
2019-04-06T09:10:21.423Z,23.33
2019-04-06T09:12:48.498Z,23.30
2019-04-06T09:15:16.592Z,22.83
2019-04-06T09:17:44.354Z,22.63
2019-04-06T09:20:11.427Z,23.20
2019-04-06T09:22:38.292Z,24.03
2019-04-06T09:25:05.424Z,22.77
2019-04-06T09:27:32.584Z,22.90
2019-04-06T09:29:59.641Z,21.37
2019-04-06T09:32:26.368Z,21.53
2019-04-06T09:34:53.182Z,22.57
2019-04-06T09:37:20.139Z,23.13
2019-04-06T09:39:46.917Z,22.93
2019-04-06T09:42:13.669Z,21.63
2019-04-06T09:45:00.268Z,19.87
2019-04-06T09:47:46.711Z,21.30
2019-04-06T09:50:33.167Z,22.23
2019-04-06T09:53:19.784Z,20.60
2019-04-06T09:55:53.848Z,21.30
2019-04-06T09:58:40.620Z,21.43
2019-04-06T10:01:37.353Z,20.40
2019-04-06T10:04:15.722Z,20.10
2019-04-06T10:07:00.936Z,20.30
2019-04-06T10:09:48.382Z,19.53
2019-04-06T10:12:35.377Z,19.60
2019-04-06T10:15:22.519Z,19.33
2019-04-06T10:18:10.646Z,19.33
2019-04-06T10:20:57.613Z,19.80
2019-04-06T10:23:44.467Z,20.07
2019-04-06T10:26:31.642Z,20.33
2019-04-06T10:29:18.304Z,19.50
2019-04-06T10:32:05.080Z,20.60
2019-04-06T10:34:51.781Z,20.40
2019-04-06T10:37:38.440Z,20.37
2019-04-06T10:40:25.728Z,20.63
2019-04-06T10:43:12.178Z,18.50
2019-04-06T10:45:59.116Z,18.60
2019-04-06T10:48:45.741Z,18.90
2019-04-06T10:51:32.390Z,19.03
2019-04-06T10:54:18.851Z,20.67
2019-04-06T10:57:05.730Z,18.63
2019-04-06T11:00:00.609Z,18.20
2019-04-06T11:02:41.290Z,16.97
2019-04-06T11:05:15.062Z,18.50
2019-04-06T11:08:01.666Z,18.43
2019-04-06T11:10:48.412Z,17.73
2019-04-06T11:13:35.197Z,18.13
2019-04-06T11:16:22.141Z,16.87
2019-04-06T11:19:11.186Z,15.80
2019-04-06T11:21:58.363Z,17.10
2019-04-06T11:24:45.399Z,16.27
2019-04-06T11:27:31.824Z,16.90
2019-04-06T11:30:18.569Z,17.03
2019-04-06T11:33:06.106Z,16.00
2019-04-06T11:35:52.884Z,16.87
2019-04-06T11:38:39.424Z,16.60
2019-04-06T11:41:25.776Z,17.23
2019-04-06T11:44:10.031Z,16.93
2019-04-06T11:46:44.637Z,16.53
2019-04-06T11:49:31.645Z,17.50
2019-04-06T11:52:18.377Z,17.30
2019-04-06T11:55:20.957Z,16.73
2019-04-06T11:58:07.607Z,16.90
2019-04-06T12:00:54.386Z,16.47
2019-04-06T12:03:41.025Z,15.73
2019-04-06T12:06:27.873Z,16.83
2019-04-06T12:09:01.450Z,16.17
2019-04-06T12:11:48.303Z,15.63
2019-04-06T12:14:36.677Z,16.03
2019-04-06T12:17:11.608Z,15.13
2019-04-06T12:19:57.962Z,15.77
2019-04-06T12:22:44.616Z,16.43
2019-04-06T12:25:31.013Z,15.97
2019-04-06T12:28:17.802Z,16.17
2019-04-06T12:31:04.288Z,15.60
2019-04-06T12:33:51.116Z,14.60
2019-04-06T12:36:37.489Z,14.30
2019-04-06T12:39:26.115Z,14.77
2019-04-06T12:42:14.060Z,14.70
2019-04-06T12:45:00.798Z,14.83
2019-04-06T12:47:47.298Z,14.33
2019-04-06T12:50:21.758Z,14.07
2019-04-06T12:53:08.396Z,13.60
2019-04-06T12:55:55.512Z,13.77
2019-04-06T12:58:41.878Z,14.03
2019-04-06T13:01:28.312Z,13.43
2019-04-06T13:04:14.841Z,14.07
2019-04-06T13:07:01.549Z,13.13
2019-04-06T13:09:47.941Z,12.90
2019-04-06T13:12:34.485Z,13.37
2019-04-06T13:15:20.814Z,11.83
2019-04-06T13:18:07.232Z,12.17
2019-04-06T13:20:53.874Z,11.57
2019-04-06T13:23:27.292Z,12.97
2019-04-06T13:26:13.633Z,12.67
2019-04-06T13:29:00.459Z,12.67
2019-04-06T13:31:44.919Z,12.83
2019-04-06T13:34:31.509Z,13.43
2019-04-06T13:37:18.529Z,13.00
2019-04-06T13:40:04.859Z,12.13
2019-04-06T13:42:51.654Z,11.77
2019-04-06T13:45:38.301Z,12.30
2019-04-06T13:48:25.538Z,12.00
2019-04-06T13:51:12.287Z,12.13
2019-04-06T13:53:48.009Z,11.50
2019-04-06T13:56:34.395Z,10.93
2019-04-06T13:59:20.735Z,12.53
2019-04-06T14:02:07.723Z,11.70
2019-04-06T14:04:54.267Z,11.80
2019-04-06T14:07:40.602Z,11.43
2019-04-06T14:10:27.395Z,11.30
2019-04-06T14:13:14.401Z,11.77
2019-04-06T14:16:01.056Z,10.57
2019-04-06T14:18:49.347Z,11.80
2019-04-06T14:21:35.684Z,11.77
2019-04-06T14:24:16.726Z,12.37
2019-04-06T14:27:03.272Z,12.83
2019-04-06T14:29:49.568Z,12.37
2019-04-06T14:32:23.691Z,11.53
2019-04-06T14:35:10.622Z,10.90
2019-04-06T14:37:45.423Z,10.83
2019-04-06T14:40:39.369Z,9.93
2019-04-06T14:43:26.008Z,11.00
2019-04-06T14:46:12.442Z,11.50
2019-04-06T14:49:10.614Z,10.87
2019-04-06T14:51:47.148Z,11.03
2019-04-06T14:54:33.537Z,10.20
2019-04-06T14:57:20.356Z,10.33
2019-04-06T15:00:06.636Z,11.27
2019-04-06T15:02:52.964Z,11.03
2019-04-06T15:05:26.905Z,11.30
2019-04-06T15:08:13.610Z,12.57
2019-04-06T15:10:59.946Z,12.00
2019-04-06T15:13:46.379Z,11.53
2019-04-06T15:16:32.726Z,11.87
2019-04-06T15:19:06.832Z,12.40
2019-04-06T15:22:12.719Z,11.90
2019-04-06T15:24:59.018Z,11.20
2019-04-06T15:27:45.400Z,11.50
2019-04-06T15:30:53.262Z,11.30
2019-04-06T15:33:39.630Z,12.37
2019-04-06T15:36:26.412Z,12.50
2019-04-06T15:39:13.376Z,12.30
2019-04-06T15:41:59.701Z,11.97
2019-04-06T15:44:46.440Z,12.23
2019-04-06T15:47:25.376Z,11.67
2019-04-06T15:50:12.039Z,12.00
2019-04-06T15:53:00.218Z,11.50
2019-04-06T15:55:47.007Z,11.60
2019-04-06T15:58:19.416Z,11.87
2019-04-06T16:01:05.983Z,11.23
2019-04-06T16:03:52.302Z,11.70
2019-04-06T16:06:38.607Z,11.50
2019-04-06T16:09:25.402Z,11.97
2019-04-06T16:12:11.815Z,11.33
2019-04-06T16:14:46.376Z,11.60
2019-04-06T16:17:17.423Z,11.57
2019-04-06T16:20:03.740Z,11.60
2019-04-06T16:22:50.895Z,11.50
2019-04-06T16:25:37.506Z,10.90
2019-04-06T16:28:09.708Z,11.63
2019-04-06T16:30:56.425Z,11.40
2019-04-06T16:33:42.703Z,11.37
2019-04-06T16:36:29.336Z,12.13
2019-04-06T16:39:15.688Z,12.30
2019-04-06T16:42:02.289Z,11.63
2019-04-06T16:44:43.404Z,12.23
2019-04-06T16:47:31.201Z,11.60
2019-04-06T16:50:18.073Z,11.40
2019-04-06T16:52:55.584Z,11.53
2019-04-06T16:55:41.876Z,11.07
2019-04-06T16:58:28.328Z,11.07
2019-04-06T17:01:14.751Z,10.83
2019-04-06T17:04:02.313Z,11.80
2019-04-06T17:06:50.128Z,10.67
2019-04-06T17:09:36.440Z,11.80
2019-04-06T17:12:23.208Z,10.90
2019-04-06T17:15:09.823Z,12.50
2019-04-06T17:17:56.162Z,11.77
2019-04-06T17:20:43.011Z,12.17
2019-04-06T17:23:29.654Z,11.37
2019-04-06T17:26:16.484Z,12.13
2019-04-06T17:29:03.383Z,10.70
2019-04-06T17:32:09.476Z,10.93
2019-04-06T17:35:15.815Z,10.80
2019-04-06T17:38:02.860Z,11.87
2019-04-06T17:40:49.158Z,11.90
2019-04-06T17:43:35.620Z,11.87
2019-04-06T17:46:22.296Z,12.03
2019-04-06T17:49:08.635Z,11.57
2019-04-06T17:51:55.703Z,11.90
2019-04-06T17:54:42.374Z,11.60
2019-04-06T17:57:28.933Z,12.37
2019-04-06T18:00:06.243Z,12.47
2019-04-06T18:02:55.058Z,12.37
2019-04-06T18:05:41.856Z,12.10
2019-04-06T18:08:15.463Z,13.37
2019-04-06T18:11:03.167Z,13.47
2019-04-06T18:13:50.021Z,13.30
2019-04-06T18:16:58.301Z,12.93
2019-04-06T18:19:25.056Z,12.93
2019-04-06T18:21:51.980Z,13.60
2019-04-06T18:24:19.521Z,13.77
2019-04-06T18:26:47.686Z,14.30
2019-04-06T18:29:14.408Z,13.37
2019-04-06T18:32:01.424Z,14.03
2019-04-06T18:34:28.558Z,14.70
2019-04-06T18:37:15.226Z,13.63
2019-04-06T18:39:41.858Z,14.13
2019-04-06T18:42:28.169Z,14.13
2019-04-06T18:44:55.264Z,13.80
2019-04-06T18:47:22.108Z,14.10
2019-04-06T18:49:49.487Z,13.70
2019-04-06T18:52:16.686Z,15.23
2019-04-06T18:54:45.124Z,14.40
2019-04-06T18:57:12.729Z,14.73
2019-04-06T18:59:39.481Z,15.60
2019-04-06T19:02:06.244Z,15.23
2019-04-06T19:04:45.741Z,15.73
2019-04-06T19:07:12.389Z,15.57
2019-04-06T19:09:39.640Z,15.50
2019-04-06T19:12:07.909Z,15.90
2019-04-06T19:14:34.991Z,15.43
2019-04-06T19:17:01.850Z,14.83
2019-04-06T19:19:50.192Z,15.37
2019-04-06T19:22:17.327Z,15.40
2019-04-06T19:24:44.552Z,16.50
2019-04-06T19:27:11.284Z,15.30
2019-04-06T19:29:57.526Z,15.13
2019-04-06T19:32:25.009Z,14.90
2019-04-06T19:34:52.935Z,14.40
2019-04-06T19:37:19.814Z,14.47
2019-04-06T19:39:46.702Z,14.13
2019-04-06T19:42:13.982Z,13.40
2019-04-06T19:44:42.503Z,13.87
2019-04-06T19:47:10.874Z,13.20
2019-04-06T19:49:37.591Z,13.97
2019-04-06T19:52:04.398Z,13.93
2019-04-06T19:54:31.274Z,13.47
2019-04-06T19:56:57.932Z,13.10
2019-04-06T19:59:24.554Z,13.17
2019-04-06T20:01:51.400Z,13.50
2019-04-06T20:04:18.766Z,13.40
2019-04-06T20:06:45.562Z,13.83
2019-04-06T20:09:13.343Z,12.57
2019-04-06T20:11:40.122Z,13.30
2019-04-06T20:14:06.879Z,12.70
2019-04-06T20:16:34.063Z,12.93
2019-04-06T20:19:02.346Z,13.23
2019-04-06T20:21:29.647Z,13.53
2019-04-06T20:23:57.224Z,14.43
2019-04-06T20:26:25.750Z,13.23
2019-04-06T20:28:52.387Z,13.63
2019-04-06T20:31:19.614Z,13.20
2019-04-06T20:33:51.616Z,13.27
2019-04-06T20:36:16.336Z,14.37
2019-04-06T20:38:43.458Z,13.80
2019-04-06T20:41:12.051Z,13.47
2019-04-06T20:43:40.292Z,13.93
2019-04-06T20:46:07.369Z,13.43
2019-04-06T20:48:34.113Z,14.00
2019-04-06T20:51:00.834Z,13.33
2019-04-06T20:53:27.702Z,14.43
2019-04-06T20:56:14.531Z,14.10
2019-04-06T20:58:41.457Z,13.63
2019-04-06T21:01:08.178Z,13.20
2019-04-06T21:03:35.699Z,13.30
2019-04-06T21:06:02.931Z,14.17
2019-04-06T21:08:29.760Z,13.73
2019-04-06T21:10:56.784Z,13.60
2019-04-06T21:13:25.394Z,13.53
2019-04-06T21:15:52.396Z,13.87
2019-04-06T21:18:19.036Z,13.37
2019-04-06T21:20:46.390Z,14.00
2019-04-06T21:23:15.544Z,13.60
2019-04-06T21:25:43.133Z,13.97
2019-04-06T21:28:10.051Z,12.73
2019-04-06T21:30:36.990Z,13.50
2019-04-06T21:33:04.248Z,14.00
2019-04-06T21:35:54.833Z,13.00
2019-04-06T21:38:21.812Z,13.30
2019-04-06T21:40:50.527Z,13.80
2019-04-06T21:43:17.900Z,13.90
2019-04-06T21:45:44.661Z,13.53
2019-04-06T21:48:11.628Z,12.57
2019-04-06T21:50:38.747Z,12.23
2019-04-06T21:53:25.443Z,12.93
2019-04-06T21:56:02.144Z,13.13
2019-04-06T21:58:22.059Z,12.80
2019-04-06T22:03:29.286Z,12.97
2019-04-06T22:06:15.590Z,13.53
2019-04-06T22:08:43.040Z,12.73
2019-04-06T22:11:09.753Z,13.87
2019-04-06T22:13:36.790Z,14.07
2019-04-06T22:16:04.063Z,13.57
2019-04-06T22:18:31.167Z,13.43
2019-04-06T22:20:57.936Z,13.40
2019-04-06T22:23:25.634Z,13.53
2019-04-06T22:25:52.358Z,13.83
2019-04-06T22:28:19.258Z,13.57
2019-04-06T22:30:46.581Z,14.13
2019-04-06T22:33:13.301Z,14.67
2019-04-06T22:35:40.363Z,14.37
2019-04-06T22:38:07.211Z,15.13
2019-04-06T22:40:34.356Z,14.40
2019-04-06T22:43:01.759Z,15.00
2019-04-06T22:45:29.852Z,14.90
2019-04-06T22:47:58.657Z,14.97
2019-04-06T22:50:26.984Z,14.50
2019-04-06T22:52:54.183Z,15.00
2019-04-06T22:55:21.055Z,15.10
2019-04-06T22:57:47.806Z,14.53
2019-04-06T23:03:18.484Z,14.03
2019-04-06T23:05:48.525Z,14.20
2019-04-06T23:08:15.831Z,14.43
2019-04-06T23:10:43.086Z,13.43
2019-04-06T23:13:09.932Z,13.47
2019-04-06T23:15:56.444Z,14.17
2019-04-06T23:18:23.114Z,13.73
2019-04-06T23:20:51.181Z,14.90
2019-04-06T23:23:19.836Z,14.40
2019-04-06T23:26:07.758Z,13.87
2019-04-06T23:31:16.480Z,14.80
2019-04-06T23:33:45.005Z,15.13
2019-04-06T23:36:12.129Z,15.07
2019-04-06T23:38:39.519Z,15.10
2019-04-06T23:41:27.678Z,15.10
2019-04-06T23:43:56.343Z,16.73
2019-04-06T23:46:24.598Z,14.77
2019-04-06T23:48:52.065Z,14.47
2019-04-06T23:51:20.185Z,15.03
2019-04-06T23:53:48.043Z,13.87
2019-04-06T23:56:15.911Z,14.13
2019-04-06T23:58:43.138Z,14.10
